createdAt,value
2024-02-23T00:03:58.653Z,1.10
2024-02-23T00:09:01.728Z,0.93
2024-02-23T00:14:04.888Z,1.53
2024-02-23T00:19:10.252Z,1.30
2024-02-23T00:24:13.286Z,1.30
2024-02-23T00:29:16.580Z,1.13
2024-02-23T00:34:21.186Z,1.07
2024-02-23T00:39:24.640Z,1.07
2024-02-23T00:44:27.854Z,1.00
2024-02-23T00:49:33.233Z,1.67
2024-02-23T00:54:36.900Z,0.80
2024-02-23T00:59:40.028Z,1.20
2024-02-23T01:04:45.034Z,0.90
2024-02-23T01:09:48.706Z,0.90
2024-02-23T01:14:51.766Z,1.43
2024-02-23T01:19:56.294Z,1.03
2024-02-23T01:24:59.360Z,1.30
2024-02-23T01:30:03.015Z,1.00
2024-02-23T01:35:09.046Z,1.20
2024-02-23T01:40:16.278Z,1.20
2024-02-23T01:45:19.538Z,1.23
2024-02-23T01:50:24.147Z,1.57
2024-02-23T01:55:27.268Z,1.80
2024-02-23T02:00:31.678Z,1.37
2024-02-23T02:05:38.291Z,1.57
2024-02-23T02:10:41.662Z,0.90
2024-02-23T02:15:45.019Z,1.33
2024-02-23T02:20:57.009Z,1.00
2024-02-23T02:26:02.839Z,1.10
2024-02-23T02:31:05.965Z,0.90
2024-02-23T02:36:10.511Z,1.10
2024-02-23T02:41:13.694Z,1.43
2024-02-23T02:46:16.894Z,1.20
2024-02-23T02:51:22.069Z,0.90
2024-02-23T02:56:25.465Z,2.53
2024-02-23T03:01:28.480Z,0.80
2024-02-23T03:06:32.975Z,1.53
2024-02-23T03:11:36.307Z,1.00
2024-02-23T03:16:39.788Z,0.90
2024-02-23T03:21:44.301Z,1.17
2024-02-23T03:26:47.478Z,0.97
2024-02-23T03:31:50.824Z,1.10
2024-02-23T03:36:55.805Z,0.90
2024-02-23T03:41:58.989Z,1.07
2024-02-23T03:47:02.184Z,1.20
2024-02-23T03:52:07.748Z,0.90
2024-02-23T03:57:10.819Z,1.13
2024-02-23T04:02:14.061Z,0.80
2024-02-23T04:07:19.085Z,1.37
2024-02-23T04:12:22.319Z,1.40
2024-02-23T04:17:25.473Z,1.10
2024-02-23T04:22:29.884Z,1.30
2024-02-23T04:27:33.187Z,1.17
2024-02-23T04:32:36.426Z,1.20
2024-02-23T04:37:41.634Z,1.13
2024-02-23T04:42:46.537Z,1.50
2024-02-23T04:47:49.649Z,1.10
2024-02-23T04:52:54.113Z,1.20
2024-02-23T04:57:58.451Z,1.43
2024-02-23T05:03:04.611Z,1.50
2024-02-23T05:08:10.822Z,1.30
2024-02-23T05:13:14.127Z,1.30
2024-02-23T05:18:17.358Z,2.13
2024-02-23T05:23:22.052Z,1.50
2024-02-23T05:28:26.108Z,1.50
2024-02-23T05:33:29.398Z,1.37
2024-02-23T05:38:34.472Z,1.33
2024-02-23T05:43:37.691Z,1.20
2024-02-23T05:48:40.925Z,1.70
2024-02-23T05:53:45.830Z,1.50
2024-02-23T05:58:49.106Z,1.30
2024-02-23T06:03:54.523Z,1.27
2024-02-23T06:08:59.172Z,1.10
2024-02-23T06:14:02.557Z,1.00
2024-02-23T06:19:05.924Z,1.10
2024-02-23T06:24:10.422Z,1.30
2024-02-23T06:29:14.927Z,0.93
2024-02-23T06:34:18.716Z,1.00
2024-02-23T06:39:23.547Z,1.00
2024-02-23T06:44:26.710Z,1.17
2024-02-23T06:49:29.996Z,1.20
2024-02-23T06:54:34.523Z,1.50
2024-02-23T06:59:37.853Z,0.90
2024-02-23T07:04:41.308Z,1.10
2024-02-23T07:09:45.996Z,1.03
2024-02-23T07:14:49.085Z,0.87
2024-02-23T07:19:54.104Z,0.83
2024-02-23T07:24:58.742Z,1.40
2024-02-23T07:30:02.087Z,1.00
2024-02-23T07:35:06.107Z,1.03
2024-02-23T07:40:11.693Z,1.40
2024-02-23T07:45:15.506Z,1.30
2024-02-23T07:50:20.304Z,1.70
2024-02-23T07:55:25.366Z,1.30
2024-02-23T08:00:28.622Z,1.30
2024-02-23T08:05:32.289Z,1.60
2024-02-23T08:10:37.043Z,1.33
2024-02-23T08:15:40.576Z,1.40
2024-02-23T08:20:43.857Z,1.77
2024-02-23T08:25:49.536Z,2.03
2024-02-23T08:30:54.375Z,1.10
2024-02-23T08:35:57.583Z,1.10
2024-02-23T08:41:02.445Z,1.20
2024-02-23T08:46:08.942Z,1.17
2024-02-23T08:51:13.781Z,1.67
2024-02-23T08:56:18.346Z,1.33
2024-02-23T09:01:21.882Z,1.00
2024-02-23T09:06:25.682Z,1.00
2024-02-23T09:11:30.756Z,1.03
2024-02-23T09:16:34.053Z,0.90
2024-02-23T09:21:37.435Z,1.10
2024-02-23T09:26:42.356Z,0.60
2024-02-23T09:31:45.428Z,0.80
2024-02-23T09:36:49.536Z,1.30
2024-02-23T09:41:54.636Z,1.07
2024-02-23T09:47:00.670Z,0.93
2024-02-23T09:52:04.892Z,0.87
2024-02-23T09:57:11.216Z,0.90
2024-02-23T10:02:18.244Z,1.17
2024-02-23T10:07:21.796Z,1.37
2024-02-23T10:12:28.104Z,1.20
2024-02-23T10:17:33.448Z,1.30
2024-02-23T10:22:39.042Z,1.00
2024-02-23T10:27:44.509Z,1.20
2024-02-23T10:32:48.466Z,1.77
2024-02-23T10:37:54.580Z,1.03
2024-02-23T10:43:03.940Z,1.00
2024-02-23T10:48:09.645Z,1.10
2024-02-23T10:53:13.890Z,1.03
2024-02-23T10:58:20.030Z,1.07
2024-02-23T11:03:23.318Z,1.03
2024-02-23T11:08:26.334Z,1.23
2024-02-23T11:13:37.574Z,1.00
2024-02-23T11:18:42.921Z,1.43
2024-02-23T11:23:47.419Z,1.10
2024-02-23T11:28:55.508Z,0.97
2024-02-23T11:34:00.144Z,1.30
2024-02-23T11:39:04.068Z,1.00
2024-02-23T11:44:09.731Z,0.93
2024-02-23T11:49:13.005Z,1.27
2024-02-23T11:54:16.666Z,0.90
2024-02-23T11:59:22.715Z,1.27
2024-02-23T12:04:26.409Z,1.13
2024-02-23T12:09:29.746Z,1.23
2024-02-23T12:14:34.913Z,1.20
2024-02-23T12:19:41.342Z,1.20
2024-02-23T12:24:44.575Z,1.40
2024-02-23T12:29:54.802Z,0.90
2024-02-23T12:34:58.655Z,0.90
2024-02-23T12:40:01.908Z,0.77
2024-02-23T12:45:08.176Z,1.30
2024-02-23T12:50:12.534Z,1.10
2024-02-23T12:55:16.561Z,1.30
2024-02-23T13:00:21.552Z,0.80
2024-02-23T13:05:25.729Z,1.00
2024-02-23T13:10:28.868Z,1.07
2024-02-23T13:15:33.549Z,0.90
2024-02-23T13:20:37.134Z,1.03
2024-02-23T13:25:42.132Z,1.60
2024-02-23T13:30:46.729Z,0.87
2024-02-23T13:35:50.094Z,0.87
2024-02-23T13:40:53.458Z,0.80
2024-02-23T13:45:59.786Z,1.00
2024-02-23T13:51:04.693Z,0.73
2024-02-23T13:56:08.449Z,0.53
2024-02-23T14:01:13.024Z,0.70
2024-02-23T14:06:16.864Z,0.60
2024-02-23T14:11:20.795Z,0.70
2024-02-23T14:16:26.266Z,0.73
2024-02-23T14:21:30.083Z,0.80
2024-02-23T14:26:34.482Z,0.90
2024-02-23T14:31:39.228Z,0.70
2024-02-23T14:36:42.340Z,0.87
2024-02-23T14:41:47.543Z,1.10
2024-02-23T14:46:52.823Z,0.80
2024-02-23T14:51:56.089Z,0.70
2024-02-23T14:56:59.756Z,0.80
2024-02-23T15:02:06.501Z,1.10
2024-02-23T15:07:09.827Z,0.70
2024-02-23T15:12:15.040Z,0.80
2024-02-23T15:17:19.841Z,1.00
2024-02-23T15:22:23.117Z,0.77
2024-02-23T15:27:26.350Z,0.83
2024-02-23T15:32:31.349Z,1.20
2024-02-23T15:37:35.690Z,1.23
2024-02-23T15:42:39.237Z,1.00
2024-02-23T15:47:44.068Z,1.07
2024-02-23T15:52:49.123Z,1.03
2024-02-23T15:57:52.264Z,0.80
2024-02-23T16:02:58.021Z,1.00
2024-02-23T16:08:04.845Z,1.20
2024-02-23T16:13:08.476Z,1.00
2024-02-23T16:18:13.383Z,1.00
2024-02-23T16:23:16.599Z,1.00
2024-02-23T16:28:20.335Z,1.07
2024-02-23T16:33:26.077Z,1.40
2024-02-23T16:38:29.549Z,1.30
2024-02-23T16:43:35.104Z,1.10
2024-02-23T16:48:39.973Z,1.13
2024-02-23T16:53:43.549Z,2.70
2024-02-23T16:58:47.632Z,0.80
2024-02-23T17:03:52.775Z,0.70
2024-02-23T17:08:56.265Z,0.70
2024-02-23T17:13:59.449Z,0.60
2024-02-23T17:19:04.306Z,0.63
2024-02-23T17:24:08.222Z,0.77
2024-02-23T17:29:13.730Z,1.10
2024-02-23T17:34:18.487Z,0.57
2024-02-23T17:39:21.628Z,0.60
2024-02-23T17:44:28.609Z,0.50
2024-02-23T17:49:33.491Z,0.60
2024-02-23T17:54:36.973Z,1.27
2024-02-23T17:59:41.031Z,1.90
2024-02-23T18:04:47.757Z,0.93
2024-02-23T18:09:51.034Z,1.00
2024-02-23T18:14:54.144Z,0.63
2024-02-23T18:19:58.927Z,0.80
2024-02-23T18:25:02.277Z,0.60
2024-02-23T18:30:07.903Z,0.60
2024-02-23T18:35:12.827Z,1.13
2024-02-23T18:40:16.556Z,0.97
2024-02-23T18:45:21.763Z,1.10
2024-02-23T18:50:26.773Z,0.87
2024-02-23T18:55:30.165Z,0.90
2024-02-23T19:00:33.911Z,1.53
2024-02-23T19:05:38.674Z,1.90
2024-02-23T19:10:42.530Z,2.03
2024-02-23T19:15:47.521Z,2.03
2024-02-23T19:20:52.499Z,2.40
2024-02-23T19:25:58.166Z,2.00
2024-02-23T19:31:01.199Z,1.30
2024-02-23T19:36:06.503Z,1.37
2024-02-23T19:41:09.636Z,1.30
2024-02-23T19:46:17.647Z,1.43
2024-02-23T19:51:22.560Z,1.70
2024-02-23T19:56:25.868Z,1.03
2024-02-23T20:01:29.573Z,1.30
2024-02-23T20:06:34.382Z,0.97
2024-02-23T20:11:37.915Z,1.00
2024-02-23T20:16:41.134Z,0.83
2024-02-23T20:21:45.728Z,1.10
2024-02-23T20:26:49.510Z,1.00
2024-02-23T20:31:52.746Z,1.00
2024-02-23T20:36:57.285Z,0.80
2024-02-23T20:42:00.654Z,1.20
2024-02-23T20:47:04.140Z,1.27
2024-02-23T20:52:11.275Z,1.23
2024-02-23T20:57:14.525Z,1.00
2024-02-23T21:02:22.936Z,1.03
2024-02-23T21:07:27.789Z,0.90
2024-02-23T21:12:31.079Z,1.00
2024-02-23T21:17:34.331Z,1.00
2024-02-23T21:22:39.354Z,1.40
2024-02-23T21:27:42.713Z,0.87
2024-02-23T21:32:46.070Z,1.30
2024-02-23T21:37:50.779Z,1.23
2024-02-23T21:42:54.055Z,1.30
2024-02-23T21:47:57.520Z,1.10
2024-02-23T21:53:02.510Z,1.40
2024-02-23T21:58:06.176Z,1.70
2024-02-23T22:03:09.462Z,2.10
2024-02-23T22:08:14.281Z,2.13
2024-02-23T22:13:17.482Z,2.50
2024-02-23T22:18:20.863Z,2.30
2024-02-23T22:23:25.453Z,2.70
2024-02-23T22:28:28.632Z,2.40
2024-02-23T22:33:32.707Z,2.50
2024-02-23T22:38:37.580Z,2.63
2024-02-23T22:43:41.815Z,2.30
2024-02-23T22:48:45.090Z,2.27
2024-02-23T22:53:49.729Z,2.13
2024-02-23T22:58:52.892Z,2.00
2024-02-23T23:03:55.909Z,1.80
2024-02-23T23:09:01.042Z,1.50
2024-02-23T23:14:04.893Z,1.40
2024-02-23T23:19:08.149Z,1.00
2024-02-23T23:24:12.901Z,1.17
2024-02-23T23:29:16.038Z,0.97
2024-02-23T23:34:20.376Z,1.10
2024-02-23T23:39:25.548Z,1.00
2024-02-23T23:44:29.036Z,1.00
2024-02-23T23:49:32.243Z,0.90
2024-02-23T23:54:37.130Z,1.03
2024-02-23T23:59:40.381Z,0.87
